Barbarossa — ZDFA4 — position and weather

sailwx.info

Track history (hours):
 
Tides and Currents Weather Stations Pressure Air Temp Water Temp Dewpoint Dewpoint Depression Visibility Wind Speed Wind Dir Waves Ship Positions

Barbarossa

Last reported at 2017-Jul-17 01:38 UTC. Time now 2017-Jul-21 14:48 UTC.
Position N 47°29' W 006°54'.

Length 83 m; draft 3.9 m.

Type: Cargo ship. MMSI: 236029000.

Date/timePositionNaut miles runAvg speedWind from/ knotsBaromVisibWave heightAir tempDewpointWater temp
2017-Jul-17 01:38N 47°29' W 006°54'1412.0
2017-Jul-17 00:29N 47°41' W 006°44'2711.5
2017-Jul-16 22:08N 48°05' W 006°25'311.0
2017-Jul-16 21:54N 48°07' W 006°24'6710.4
2017-Jul-16 15:26N 49°02' W 005°25'7010.7
2017-Jul-16 08:55N 49°37' W 003°52'410.0
2017-Jul-16 08:30N 49°39' W 003°47'510.3
2017-Jul-16 08:00N 49°42' W 003°41'510.8
2017-Jul-16 07:30N 49°45' W 003°34'611.2
2017-Jul-16 07:00N 49°48' W 003°26'611.6
2017-Jul-16 06:30N 49°50' W 003°18'612.3
2017-Jul-16 06:00N 49°53' W 003°10'612.5
2017-Jul-16 05:30N 49°56' W 003°02'612.4
2017-Jul-16 05:00N 49°59' W 002°53'712.3
2017-Jul-16 04:28N 50°01' W 002°43'3010.3
2017-Jul-16 01:34N 50°09' W 001°58'1 8.5
2017-Jul-16 01:25N 50°10' W 001°56'3 8.2
2017-Jul-16 01:00N 50°11' W 001°51'4 7.9
2017-Jul-16 00:30N 50°12' W 001°45'4 7.7
2017-Jul-15 23:59N 50°13' W 001°39'4 7.7
2017-Jul-15 23:29N 50°14' W 001°33'5 8.0
2017-Jul-15 22:52N 50°15' W 001°26'4811.0
2017-Jul-15 18:31N 50°29' W 000°14'012.0
2017-Jul-15 18:29N 50°29' W 000°14'611.6
2017-Jul-15 18:00N 50°31' W 000°05'611.4
2017-Jul-15 17:30N 50°32' E 000°03'611.2
2017-Jul-15 17:00N 50°34' E 000°12'611.2
2017-Jul-15 16:30N 50°36' E 000°20'610.9
2017-Jul-15 15:58N 50°38' E 000°29'510.3
2017-Jul-15 15:30N 50°39' E 000°36'810.1
2017-Jul-15 14:43N 50°44' E 000°46'2710.4
2017-Jul-15 12:06N 51°01' E 001°20'112.6
2017-Jul-15 11:59N 51°02' E 001°22'613.2
2017-Jul-15 11:30N 51°05' E 001°30'713.9
2017-Jul-15 11:00N 51°10' E 001°38'713.2
2017-Jul-15 10:30N 51°14' E 001°46'612.7
2017-Jul-15 10:01N 51°20' E 001°51'611.8
2017-Jul-15 09:31N 51°25' E 001°56'611.2
2017-Jul-15 09:00N 51°29' E 002°02'510.8
2017-Jul-15 08:30N 51°33' E 002°07'510.5
2017-Jul-15 08:00N 51°37' E 002°13'46 9.8
2017-Jul-15 03:17N 52°13' E 002°59'311.0
2017-Jul-15 02:58N 52°16' E 003°03'611.4
2017-Jul-15 02:29N 52°21' E 003°08'611.7
2017-Jul-15 01:59N 52°26' E 003°13'209 9.7
2017-Jul-14 04:33N 53°59' E 008°25'113.0
2017-Jul-14 04:29N 53°59' E 008°26'711.9
2017-Jul-14 03:54N 53°57' E 008°37'410.2
2017-Jul-14 03:30N 53°54' E 008°42'5 9.3
2017-Jul-14 03:00N 53°51' E 008°47'4 8.8
2017-Jul-14 02:30N 53°51' E 008°54'4 8.4
2017-Jul-14 02:00N 53°51' E 009°01'4 8.3
2017-Jul-14 01:30N 53°53' E 009°08'1 2.3
2017-Jul-14 01:01N 53°54' E 009°09'1 3.0
2017-Jul-14 00:30N 53°55' E 009°11'0 0.0
2017-Jul-14 00:00N 53°55' E 009°11'0 0.0
2017-Jul-13 23:30N 53°55' E 009°11'0 0.0
2017-Jul-13 23:00N 53°55' E 009°11'0 0.0
2017-Jul-13 22:30N 53°55' E 009°11'0 0.0
2017-Jul-13 22:00N 53°55' E 009°11'0 0.0
2017-Jul-13 21:30N 53°55' E 009°11'3 5.5
2017-Jul-13 21:00N 53°57' E 009°14'4 8.2
2017-Jul-13 20:31N 54°00' E 009°18'4 8.4
2017-Jul-13 20:00N 54°04' E 009°19'59 6.9
2017-Jul-13 11:29N 54°35' E 010°45'510.8
2017-Jul-13 11:01N 54°36' E 010°54'510.5
2017-Jul-13 10:30N 54°36' E 011°03'5 9.7
2017-Jul-13 10:00N 54°36' E 011°11'5 9.7
2017-Jul-13 09:30N 54°34' E 011°19'10 9.5
2017-Jul-13 08:25N 54°30' E 011°35'4 9.8
2017-Jul-13 08:00N 54°28' E 011°41'14 9.6
2017-Jul-13 06:32N 54°27' E 012°06'010.4
2017-Jul-13 06:31N 54°27' E 012°06'5 9.5
2017-Jul-13 06:00N 54°30' E 012°11'611.0
2017-Jul-13 05:30N 54°36' E 012°14'510.3
2017-Jul-13 05:01N 54°39' E 012°20'7210.4
2017-Jul-12 22:06N 55°11' E 014°13'411.2
2017-Jul-12 21:43N 55°14' E 014°18'311.2
2017-Jul-12 21:29N 55°16' E 014°21'511.4
2017-Jul-12 21:00N 55°20' E 014°26'711.4
2017-Jul-12 20:24N 55°26' E 014°34'610.9
2017-Jul-12 19:50N 55°29' E 014°43'1510.7
2017-Jul-12 18:26N 55°37' E 015°05'511.1
2017-Jul-12 17:58N 55°40' E 015°13'511.2
2017-Jul-12 17:30N 55°43' E 015°21'611.2
2017-Jul-12 17:00N 55°45' E 015°30'611.4
2017-Jul-12 16:30N 55°48' E 015°39'611.1
2017-Jul-12 16:00N 55°51' E 015°47'611.1
2017-Jul-12 15:30N 55°53' E 015°56'611.2
2017-Jul-12 15:00N 55°56' E 016°05'1111.0
2017-Jul-12 14:00N 56°02' E 016°22'611.1
2017-Jul-12 13:30N 56°04' E 016°30'511.0
2017-Jul-12 13:00N 56°07' E 016°39'510.8
2017-Jul-12 12:30N 56°10' E 016°47'510.8
2017-Jul-12 12:00N 56°13' E 016°55'510.6
2017-Jul-12 11:30N 56°16' E 017°02'610.5
2017-Jul-12 10:57N 56°20' E 017°11'21810.8
2017-Jul-11 14:52N 59°07' E 021°32'410.3
2017-Jul-11 14:30N 59°10' E 021°37'510.4
2017-Jul-11 14:01N 59°13' E 021°45'510.9
2017-Jul-11 13:30N 59°17' E 021°53'510.8
2017-Jul-11 13:00N 59°20' E 022°02'510.9
2017-Jul-11 12:30N 59°23' E 022°10'611.2
2017-Jul-11 12:01N 59°26' E 022°19'611.3
2017-Jul-11 11:31N 59°29' E 022°29'611.5
2017-Jul-11 11:00N 59°31' E 022°39'611.6
2017-Jul-11 10:30N 59°33' E 022°50'611.8
2017-Jul-11 10:00N 59°35' E 023°01'611.8
2017-Jul-11 09:30N 59°37' E 023°12'611.4
2017-Jul-11 09:01N 59°38' E 023°23'611.3
2017-Jul-11 08:30N 59°40' E 023°34'611.1
2017-Jul-11 08:00N 59°41' E 023°44'611.1
2017-Jul-11 07:31N 59°43' E 023°55'611.2
2017-Jul-11 07:01N 59°45' E 024°05'611.2
2017-Jul-11 06:31N 59°46' E 024°16'611.4
2017-Jul-11 06:00N 59°47' E 024°27'611.5
2017-Jul-11 05:31N 59°48' E 024°38'611.4
2017-Jul-11 05:01N 59°49' E 024°49'611.3
2017-Jul-11 04:31N 59°50' E 025°01'611.8
2017-Jul-11 04:00N 59°52' E 025°12'611.4
2017-Jul-11 03:30N 59°53' E 025°23'611.6
2017-Jul-11 03:01N 59°54' E 025°35'611.4
2017-Jul-11 02:31N 59°55' E 025°46'611.3
2017-Jul-11 02:00N 59°59' E 025°54'611.4
2017-Jul-11 01:31N 60°03' E 026°02'611.3
2017-Jul-11 01:00N 60°06' E 026°11'611.1
2017-Jul-11 00:30N 60°10' E 026°20'511.0
2017-Jul-11 00:01N 60°14' E 026°26'510.7
2017-Jul-10 23:30N 60°18' E 026°33'611.1
2017-Jul-10 23:01N 60°22' E 026°42'510.7
2017-Jul-10 22:30N 60°22' E 026°52'611.1
2017-Jul-10 22:00N 60°21' E 027°03'510.4
2017-Jul-10 21:30N 60°26' E 027°08'510.4
2017-Jul-10 21:00N 60°31' E 027°10'1 1.1
2017-Jul-10 20:28N 60°32' E 027°10'0 0.0
2017-Jul-10 19:58N 60°32' E 027°10'0 0.0
2017-Jul-10 19:29N 60°32' E 027°10'0 0.0
2017-Jul-10 18:56N 60°32' E 027°10'0 0.0
2017-Jul-10 18:29N 60°32' E 027°10'0 0.0
2017-Jul-10 17:59N 60°32' E 027°10'0 0.0
2017-Jul-10 17:29N 60°32' E 027°10'0 0.0
2017-Jul-10 16:58N 60°32' E 027°10'0 0.0
2017-Jul-10 16:28N 60°32' E 027°10'0 0.0
2017-Jul-10 15:58N 60°32' E 027°10'0 0.0
2017-Jul-10 15:28N 60°32' E 027°10'0 0.0
2017-Jul-10 14:58N 60°32' E 027°10'0 0.0
2017-Jul-10 14:30N 60°32' E 027°10'0 0.0
2017-Jul-10 13:51N 60°32' E 027°10'0 0.0
2017-Jul-10 13:30N 60°32' E 027°10'0 0.0
2017-Jul-10 12:57N 60°32' E 027°10'0 0.0
2017-Jul-10 12:30N 60°32' E 027°10'0 0.0
2017-Jul-10 11:56N 60°32' E 027°10'0 0.0
2017-Jul-10 11:29N 60°32' E 027°10'0 0.0
2017-Jul-10 10:59N 60°32' E 027°10'0 0.0
2017-Jul-10 10:29N 60°32' E 027°10'0 0.0
2017-Jul-10 09:55N 60°32' E 027°10'0 0.0
2017-Jul-10 09:28N 60°32' E 027°10'0 0.0
2017-Jul-10 08:58N 60°32' E 027°10'0 0.0
2017-Jul-10 08:28N 60°32' E 027°10'0 0.0
2017-Jul-10 07:58N 60°32' E 027°10'0 0.0
2017-Jul-10 07:30N 60°32' E 027°10'0 0.0
2017-Jul-10 07:00N 60°32' E 027°10'0 0.0
2017-Jul-10 06:30N 60°32' E 027°10'0 0.0
2017-Jul-10 06:00N 60°32' E 027°10'0 0.0
2017-Jul-10 05:29N 60°32' E 027°10'0 0.0
2017-Jul-10 04:59N 60°32' E 027°10'0 0.0
2017-Jul-10 04:26N 60°32' E 027°10'0 0.0
2017-Jul-10 03:59N 60°32' E 027°10'0 0.0
2017-Jul-10 03:26N 60°32' E 027°10'0 0.0
2017-Jul-10 02:58N 60°32' E 027°10'0 0.0
2017-Jul-10 02:28N 60°32' E 027°10'0 0.0
2017-Jul-10 01:58N 60°32' E 027°10'0 0.0
2017-Jul-10 01:28N 60°32' E 027°10'0 0.0
2017-Jul-10 00:58N 60°32' E 027°10'0 0.0
2017-Jul-10 00:30N 60°32' E 027°10'0 0.0
2017-Jul-09 23:57N 60°32' E 027°10'0 0.0
2017-Jul-09 23:30N 60°32' E 027°10'0 0.0
2017-Jul-09 23:00N 60°32' E 027°10'0 0.0
2017-Jul-09 22:26N 60°32' E 027°10'0 0.0
2017-Jul-09 21:59N 60°32' E 027°10'0 0.0
2017-Jul-09 21:29N 60°32' E 027°10'0 0.0
2017-Jul-09 20:59N 60°32' E 027°10'0 0.0
2017-Jul-09 20:29N 60°32' E 027°10'0 0.0
2017-Jul-09 19:58N 60°32' E 027°10'0 0.0
2017-Jul-09 19:28N 60°32' E 027°10'0 0.0
2017-Jul-09 19:00N 60°32' E 027°10'1 2.3
2017-Jul-09 18:30N 60°31' E 027°10'5 9.6
2017-Jul-09 18:00N 60°28' E 027°01'510.1
2017-Jul-09 17:30N 60°25' E 026°54'611.4
2017-Jul-09 17:00N 60°22' E 026°43'611.3
2017-Jul-09 16:30N 60°19' E 026°35'611.4
2017-Jul-09 16:00N 60°15' E 026°26'611.3
2017-Jul-09 15:30N 60°10' E 026°21'611.6
2017-Jul-09 15:00N 60°05' E 026°15'611.7
2017-Jul-09 14:30N 59°60' E 026°09'611.6
2017-Jul-09 14:00N 59°55' E 026°02'510.4
2017-Jul-09 13:30N 59°53' E 025°53'611.4
2017-Jul-09 13:00N 59°52' E 025°41'611.5
2017-Jul-09 12:30N 59°51' E 025°30'611.1
2017-Jul-09 12:00N 59°49' E 025°20'511.0
2017-Jul-09 11:30N 59°48' E 025°09'611.4
2017-Jul-09 11:00N 59°47' E 024°58'611.4
2017-Jul-09 10:30N 59°46' E 024°47'611.4
2017-Jul-09 10:00N 59°45' E 024°36'611.3
2017-Jul-09 09:30N 59°44' E 024°25'611.5
2017-Jul-09 09:00N 59°42' E 024°14'611.3
2017-Jul-09 08:31N 59°41' E 024°03'611.3
2017-Jul-09 08:00N 59°39' E 023°52'611.5
2017-Jul-09 07:30N 59°37' E 023°42'611.6
2017-Jul-09 07:00N 59°35' E 023°31'611.4
2017-Jul-09 06:30N 59°33' E 023°20'611.2
2017-Jul-09 06:00N 59°31' E 023°10'611.6
2017-Jul-09 05:30N 59°29' E 022°59'611.7
2017-Jul-09 05:00N 59°27' E 022°48'611.4
2017-Jul-09 04:30N 59°25' E 022°38'611.6
2017-Jul-09 04:00N 59°22' E 022°29'611.4
2017-Jul-09 03:30N 59°18' E 022°20'611.7
2017-Jul-09 03:00N 59°14' E 022°11'611.1
2017-Jul-09 02:30N 59°11' E 022°02'611.6
2017-Jul-09 02:00N 59°08' E 021°53'611.8
2017-Jul-09 01:30N 59°04' E 021°44'611.7
2017-Jul-09 01:00N 58°59' E 021°38'611.5
2017-Jul-09 00:30N 58°55' E 021°31'21911.5
2017-Jul-08 05:35N 56°11' E 017°02'211.5
2017-Jul-08 05:25N 56°09' E 016°60'511.5
2017-Jul-08 05:00N 56°06' E 016°53'611.5
2017-Jul-08 04:30N 56°03' E 016°44'611.5
2017-Jul-08 04:00N 56°00' E 016°35'611.3
2017-Jul-08 03:30N 55°58' E 016°27'611.1
2017-Jul-08 03:00N 55°55' E 016°18'611.2
2017-Jul-08 02:30N 55°52' E 016°09'611.1
2017-Jul-08 02:00N 55°50' E 016°01'611.1
2017-Jul-08 01:30N 55°47' E 015°52'611.1
2017-Jul-08 01:00N 55°43' E 015°44'611.2
2017-Jul-08 00:30N 55°40' E 015°36'611.2
2017-Jul-08 00:01N 55°38' E 015°27'611.2
2017-Jul-07 23:30N 55°36' E 015°18'611.5
2017-Jul-07 23:01N 55°33' E 015°09'611.4
2017-Jul-07 22:30N 55°30' E 014°60'611.5
2017-Jul-07 22:00N 55°27' E 014°51'711.6
2017-Jul-07 21:26N 55°24' E 014°41'511.5
2017-Jul-07 20:59N 55°20' E 014°35'511.5
2017-Jul-07 20:30N 55°16' E 014°29'611.4
2017-Jul-07 20:00N 55°12' E 014°22'611.4
2017-Jul-07 19:30N 55°07' E 014°16'611.5
2017-Jul-07 19:00N 55°03' E 014°09'611.2
2017-Jul-07 18:29N 55°00' E 014°00'2211.4
2017-Jul-07 16:31N 54°53' E 013°24'011.1
2017-Jul-07 16:29N 54°53' E 013°23'1611.0
2017-Jul-07 15:02N 54°48' E 012°57'011.0
2017-Jul-07 15:01N 54°48' E 012°56'1110.8
2017-Jul-07 14:00N 54°43' E 012°39'510.9
2017-Jul-07 13:30N 54°40' E 012°31'611.2
2017-Jul-07 13:00N 54°37' E 012°23'510.2
2017-Jul-07 12:30N 54°33' E 012°18'910.9
2017-Jul-07 11:40N 54°25' E 012°10'411.0
2017-Jul-07 11:17N 54°24' E 012°03'310.9
2017-Jul-07 11:01N 54°25' E 011°58'611.0
2017-Jul-07 10:25N 54°25' E 011°47'511.4
2017-Jul-07 10:00N 54°27' E 011°39'611.5
2017-Jul-07 09:29N 54°29' E 011°30'510.1
2017-Jul-07 09:01N 54°31' E 011°22'510.0
2017-Jul-07 08:30N 54°33' E 011°15'5 9.6
2017-Jul-07 08:00N 54°35' E 011°07'510.7
2017-Jul-07 07:30N 54°34' E 010°58'611.2
2017-Jul-07 07:00N 54°34' E 010°48'611.7
2017-Jul-07 06:30N 54°33' E 010°38'611.4
2017-Jul-07 06:00N 54°32' E 010°28'611.3
2017-Jul-07 05:31N 54°30' E 010°19'611.2
2017-Jul-07 05:01N 54°25' E 010°13'4 8.7
2017-Jul-07 04:30N 54°22' E 010°09'0 0.3
2017-Jul-07 04:00N 54°22' E 010°08'0 0.9
2017-Jul-07 03:30N 54°22' E 010°08'2 3.9
2017-Jul-07 03:00N 54°22' E 010°04'3 5.9
2017-Jul-07 02:26N 54°21' E 009°59'3 7.3
2017-Jul-07 02:00N 54°21' E 009°54'  
Track history (hours):
 
Tides and Currents Weather Stations Pressure Air Temp Water Temp Dewpoint Dewpoint Depression Visibility Wind Speed Wind Dir Waves Ship Positions

Barbarossa

Last reported at 2017-Jul-17 01:38 UTC. Time now 2017-Jul-21 14:48 UTC.
Position N 47°29' W 006°54'.

Length 83 m; draft 3.9 m.

Type: Cargo ship. MMSI: 236029000.

Date/timePositionNaut miles runAvg speedWind from/ knotsBaromVisibWave heightAir tempDewpointWater temp
2017-Jul-17 01:38N 47°29' W 006°54'1412.0
2017-Jul-17 00:29N 47°41' W 006°44'2711.5
2017-Jul-16 22:08N 48°05' W 006°25'311.0
2017-Jul-16 21:54N 48°07' W 006°24'6710.4
2017-Jul-16 15:26N 49°02' W 005°25'7010.7
2017-Jul-16 08:55N 49°37' W 003°52'410.0
2017-Jul-16 08:30N 49°39' W 003°47'510.3
2017-Jul-16 08:00N 49°42' W 003°41'510.8
2017-Jul-16 07:30N 49°45' W 003°34'611.2
2017-Jul-16 07:00N 49°48' W 003°26'611.6
2017-Jul-16 06:30N 49°50' W 003°18'612.3
2017-Jul-16 06:00N 49°53' W 003°10'612.5
2017-Jul-16 05:30N 49°56' W 003°02'612.4
2017-Jul-16 05:00N 49°59' W 002°53'712.3
2017-Jul-16 04:28N 50°01' W 002°43'3010.3
2017-Jul-16 01:34N 50°09' W 001°58'1 8.5
2017-Jul-16 01:25N 50°10' W 001°56'3 8.2
2017-Jul-16 01:00N 50°11' W 001°51'4 7.9
2017-Jul-16 00:30N 50°12' W 001°45'4 7.7
2017-Jul-15 23:59N 50°13' W 001°39'4 7.7
2017-Jul-15 23:29N 50°14' W 001°33'5 8.0
2017-Jul-15 22:52N 50°15' W 001°26'4811.0
2017-Jul-15 18:31N 50°29' W 000°14'012.0
2017-Jul-15 18:29N 50°29' W 000°14'611.6
2017-Jul-15 18:00N 50°31' W 000°05'611.4
2017-Jul-15 17:30N 50°32' E 000°03'611.2
2017-Jul-15 17:00N 50°34' E 000°12'611.2
2017-Jul-15 16:30N 50°36' E 000°20'610.9
2017-Jul-15 15:58N 50°38' E 000°29'510.3
2017-Jul-15 15:30N 50°39' E 000°36'810.1
2017-Jul-15 14:43N 50°44' E 000°46'2710.4
2017-Jul-15 12:06N 51°01' E 001°20'112.6
2017-Jul-15 11:59N 51°02' E 001°22'613.2
2017-Jul-15 11:30N 51°05' E 001°30'713.9
2017-Jul-15 11:00N 51°10' E 001°38'713.2
2017-Jul-15 10:30N 51°14' E 001°46'612.7
2017-Jul-15 10:01N 51°20' E 001°51'611.8
2017-Jul-15 09:31N 51°25' E 001°56'611.2
2017-Jul-15 09:00N 51°29' E 002°02'510.8
2017-Jul-15 08:30N 51°33' E 002°07'510.5
2017-Jul-15 08:00N 51°37' E 002°13'46 9.8
2017-Jul-15 03:17N 52°13' E 002°59'311.0
2017-Jul-15 02:58N 52°16' E 003°03'611.4
2017-Jul-15 02:29N 52°21' E 003°08'611.7
2017-Jul-15 01:59N 52°26' E 003°13'209 9.7
2017-Jul-14 04:33N 53°59' E 008°25'113.0
2017-Jul-14 04:29N 53°59' E 008°26'711.9
2017-Jul-14 03:54N 53°57' E 008°37'410.2
2017-Jul-14 03:30N 53°54' E 008°42'5 9.3
2017-Jul-14 03:00N 53°51' E 008°47'4 8.8
2017-Jul-14 02:30N 53°51' E 008°54'4 8.4
2017-Jul-14 02:00N 53°51' E 009°01'4 8.3
2017-Jul-14 01:30N 53°53' E 009°08'1 2.3
2017-Jul-14 01:01N 53°54' E 009°09'1 3.0
2017-Jul-14 00:30N 53°55' E 009°11'0 0.0
2017-Jul-14 00:00N 53°55' E 009°11'0 0.0
2017-Jul-13 23:30N 53°55' E 009°11'0 0.0
2017-Jul-13 23:00N 53°55' E 009°11'0 0.0
2017-Jul-13 22:30N 53°55' E 009°11'0 0.0
2017-Jul-13 22:00N 53°55' E 009°11'0 0.0
2017-Jul-13 21:30N 53°55' E 009°11'3 5.5
2017-Jul-13 21:00N 53°57' E 009°14'4 8.2
2017-Jul-13 20:31N 54°00' E 009°18'4 8.4
2017-Jul-13 20:00N 54°04' E 009°19'59 6.9
2017-Jul-13 11:29N 54°35' E 010°45'510.8
2017-Jul-13 11:01N 54°36' E 010°54'510.5
2017-Jul-13 10:30N 54°36' E 011°03'5 9.7
2017-Jul-13 10:00N 54°36' E 011°11'5 9.7
2017-Jul-13 09:30N 54°34' E 011°19'10 9.5
2017-Jul-13 08:25N 54°30' E 011°35'4 9.8
2017-Jul-13 08:00N 54°28' E 011°41'14 9.6
2017-Jul-13 06:32N 54°27' E 012°06'010.4
2017-Jul-13 06:31N 54°27' E 012°06'5 9.5
2017-Jul-13 06:00N 54°30' E 012°11'611.0
2017-Jul-13 05:30N 54°36' E 012°14'510.3
2017-Jul-13 05:01N 54°39' E 012°20'7210.4
2017-Jul-12 22:06N 55°11' E 014°13'411.2
2017-Jul-12 21:43N 55°14' E 014°18'311.2
2017-Jul-12 21:29N 55°16' E 014°21'511.4
2017-Jul-12 21:00N 55°20' E 014°26'711.4
2017-Jul-12 20:24N 55°26' E 014°34'610.9
2017-Jul-12 19:50N 55°29' E 014°43'1510.7
2017-Jul-12 18:26N 55°37' E 015°05'511.1
2017-Jul-12 17:58N 55°40' E 015°13'511.2
2017-Jul-12 17:30N 55°43' E 015°21'611.2
2017-Jul-12 17:00N 55°45' E 015°30'611.4
2017-Jul-12 16:30N 55°48' E 015°39'611.1
2017-Jul-12 16:00N 55°51' E 015°47'611.1
2017-Jul-12 15:30N 55°53' E 015°56'611.2
2017-Jul-12 15:00N 55°56' E 016°05'1111.0
2017-Jul-12 14:00N 56°02' E 016°22'611.1
2017-Jul-12 13:30N 56°04' E 016°30'511.0
2017-Jul-12 13:00N 56°07' E 016°39'510.8
2017-Jul-12 12:30N 56°10' E 016°47'510.8
2017-Jul-12 12:00N 56°13' E 016°55'510.6
2017-Jul-12 11:30N 56°16' E 017°02'610.5
2017-Jul-12 10:57N 56°20' E 017°11'21810.8
2017-Jul-11 14:52N 59°07' E 021°32'410.3
2017-Jul-11 14:30N 59°10' E 021°37'510.4
2017-Jul-11 14:01N 59°13' E 021°45'510.9
2017-Jul-11 13:30N 59°17' E 021°53'510.8
2017-Jul-11 13:00N 59°20' E 022°02'510.9
2017-Jul-11 12:30N 59°23' E 022°10'611.2
2017-Jul-11 12:01N 59°26' E 022°19'611.3
2017-Jul-11 11:31N 59°29' E 022°29'611.5
2017-Jul-11 11:00N 59°31' E 022°39'611.6
2017-Jul-11 10:30N 59°33' E 022°50'611.8
2017-Jul-11 10:00N 59°35' E 023°01'611.8
2017-Jul-11 09:30N 59°37' E 023°12'611.4
2017-Jul-11 09:01N 59°38' E 023°23'611.3
2017-Jul-11 08:30N 59°40' E 023°34'611.1
2017-Jul-11 08:00N 59°41' E 023°44'611.1
2017-Jul-11 07:31N 59°43' E 023°55'611.2
2017-Jul-11 07:01N 59°45' E 024°05'611.2
2017-Jul-11 06:31N 59°46' E 024°16'611.4
2017-Jul-11 06:00N 59°47' E 024°27'611.5
2017-Jul-11 05:31N 59°48' E 024°38'611.4
2017-Jul-11 05:01N 59°49' E 024°49'611.3
2017-Jul-11 04:31N 59°50' E 025°01'611.8
2017-Jul-11 04:00N 59°52' E 025°12'611.4
2017-Jul-11 03:30N 59°53' E 025°23'611.6
2017-Jul-11 03:01N 59°54' E 025°35'611.4
2017-Jul-11 02:31N 59°55' E 025°46'611.3
2017-Jul-11 02:00N 59°59' E 025°54'611.4
2017-Jul-11 01:31N 60°03' E 026°02'611.3
2017-Jul-11 01:00N 60°06' E 026°11'611.1
2017-Jul-11 00:30N 60°10' E 026°20'511.0
2017-Jul-11 00:01N 60°14' E 026°26'510.7
2017-Jul-10 23:30N 60°18' E 026°33'611.1
2017-Jul-10 23:01N 60°22' E 026°42'510.7
2017-Jul-10 22:30N 60°22' E 026°52'611.1
2017-Jul-10 22:00N 60°21' E 027°03'510.4
2017-Jul-10 21:30N 60°26' E 027°08'510.4
2017-Jul-10 21:00N 60°31' E 027°10'1 1.1
2017-Jul-10 20:28N 60°32' E 027°10'0 0.0
2017-Jul-10 19:58N 60°32' E 027°10'0 0.0
2017-Jul-10 19:29N 60°32' E 027°10'0 0.0
2017-Jul-10 18:56N 60°32' E 027°10'0 0.0
2017-Jul-10 18:29N 60°32' E 027°10'0 0.0
2017-Jul-10 17:59N 60°32' E 027°10'0 0.0
2017-Jul-10 17:29N 60°32' E 027°10'0 0.0
2017-Jul-10 16:58N 60°32' E 027°10'0 0.0
2017-Jul-10 16:28N 60°32' E 027°10'0 0.0
2017-Jul-10 15:58N 60°32' E 027°10'0 0.0
2017-Jul-10 15:28N 60°32' E 027°10'0 0.0
2017-Jul-10 14:58N 60°32' E 027°10'0 0.0
2017-Jul-10 14:30N 60°32' E 027°10'0 0.0
2017-Jul-10 13:51N 60°32' E 027°10'0 0.0
2017-Jul-10 13:30N 60°32' E 027°10'0 0.0
2017-Jul-10 12:57N 60°32' E 027°10'0 0.0
2017-Jul-10 12:30N 60°32' E 027°10'0 0.0
2017-Jul-10 11:56N 60°32' E 027°10'0 0.0
2017-Jul-10 11:29N 60°32' E 027°10'0 0.0
2017-Jul-10 10:59N 60°32' E 027°10'0 0.0
2017-Jul-10 10:29N 60°32' E 027°10'0 0.0
2017-Jul-10 09:55N 60°32' E 027°10'0 0.0
2017-Jul-10 09:28N 60°32' E 027°10'0 0.0
2017-Jul-10 08:58N 60°32' E 027°10'0 0.0
2017-Jul-10 08:28N 60°32' E 027°10'0 0.0
2017-Jul-10 07:58N 60°32' E 027°10'0 0.0
2017-Jul-10 07:30N 60°32' E 027°10'0 0.0
2017-Jul-10 07:00N 60°32' E 027°10'0 0.0
2017-Jul-10 06:30N 60°32' E 027°10'0 0.0
2017-Jul-10 06:00N 60°32' E 027°10'0 0.0
2017-Jul-10 05:29N 60°32' E 027°10'0 0.0
2017-Jul-10 04:59N 60°32' E 027°10'0 0.0
2017-Jul-10 04:26N 60°32' E 027°10'0 0.0
2017-Jul-10 03:59N 60°32' E 027°10'0 0.0
2017-Jul-10 03:26N 60°32' E 027°10'0 0.0
2017-Jul-10 02:58N 60°32' E 027°10'0 0.0
2017-Jul-10 02:28N 60°32' E 027°10'0 0.0
2017-Jul-10 01:58N 60°32' E 027°10'0 0.0
2017-Jul-10 01:28N 60°32' E 027°10'0 0.0
2017-Jul-10 00:58N 60°32' E 027°10'0 0.0
2017-Jul-10 00:30N 60°32' E 027°10'0 0.0
2017-Jul-09 23:57N 60°32' E 027°10'0 0.0
2017-Jul-09 23:30N 60°32' E 027°10'0 0.0
2017-Jul-09 23:00N 60°32' E 027°10'0 0.0
2017-Jul-09 22:26N 60°32' E 027°10'0 0.0
2017-Jul-09 21:59N 60°32' E 027°10'0 0.0
2017-Jul-09 21:29N 60°32' E 027°10'0 0.0
2017-Jul-09 20:59N 60°32' E 027°10'0 0.0
2017-Jul-09 20:29N 60°32' E 027°10'0 0.0
2017-Jul-09 19:58N 60°32' E 027°10'0 0.0
2017-Jul-09 19:28N 60°32' E 027°10'0 0.0
2017-Jul-09 19:00N 60°32' E 027°10'1 2.3
2017-Jul-09 18:30N 60°31' E 027°10'5 9.6
2017-Jul-09 18:00N 60°28' E 027°01'510.1
2017-Jul-09 17:30N 60°25' E 026°54'611.4
2017-Jul-09 17:00N 60°22' E 026°43'611.3
2017-Jul-09 16:30N 60°19' E 026°35'611.4
2017-Jul-09 16:00N 60°15' E 026°26'611.3
2017-Jul-09 15:30N 60°10' E 026°21'611.6
2017-Jul-09 15:00N 60°05' E 026°15'611.7
2017-Jul-09 14:30N 59°60' E 026°09'611.6
2017-Jul-09 14:00N 59°55' E 026°02'510.4
2017-Jul-09 13:30N 59°53' E 025°53'611.4
2017-Jul-09 13:00N 59°52' E 025°41'611.5
2017-Jul-09 12:30N 59°51' E 025°30'611.1
2017-Jul-09 12:00N 59°49' E 025°20'511.0
2017-Jul-09 11:30N 59°48' E 025°09'611.4
2017-Jul-09 11:00N 59°47' E 024°58'611.4
2017-Jul-09 10:30N 59°46' E 024°47'611.4
2017-Jul-09 10:00N 59°45' E 024°36'611.3
2017-Jul-09 09:30N 59°44' E 024°25'611.5
2017-Jul-09 09:00N 59°42' E 024°14'611.3
2017-Jul-09 08:31N 59°41' E 024°03'611.3
2017-Jul-09 08:00N 59°39' E 023°52'611.5
2017-Jul-09 07:30N 59°37' E 023°42'611.6
2017-Jul-09 07:00N 59°35' E 023°31'611.4
2017-Jul-09 06:30N 59°33' E 023°20'611.2
2017-Jul-09 06:00N 59°31' E 023°10'611.6
2017-Jul-09 05:30N 59°29' E 022°59'611.7
2017-Jul-09 05:00N 59°27' E 022°48'611.4
2017-Jul-09 04:30N 59°25' E 022°38'611.6
2017-Jul-09 04:00N 59°22' E 022°29'611.4
2017-Jul-09 03:30N 59°18' E 022°20'611.7
2017-Jul-09 03:00N 59°14' E 022°11'611.1
2017-Jul-09 02:30N 59°11' E 022°02'611.6
2017-Jul-09 02:00N 59°08' E 021°53'611.8
2017-Jul-09 01:30N 59°04' E 021°44'611.7
2017-Jul-09 01:00N 58°59' E 021°38'611.5
2017-Jul-09 00:30N 58°55' E 021°31'21911.5
2017-Jul-08 05:35N 56°11' E 017°02'211.5
2017-Jul-08 05:25N 56°09' E 016°60'511.5
2017-Jul-08 05:00N 56°06' E 016°53'611.5
2017-Jul-08 04:30N 56°03' E 016°44'611.5
2017-Jul-08 04:00N 56°00' E 016°35'611.3
2017-Jul-08 03:30N 55°58' E 016°27'611.1
2017-Jul-08 03:00N 55°55' E 016°18'611.2
2017-Jul-08 02:30N 55°52' E 016°09'611.1
2017-Jul-08 02:00N 55°50' E 016°01'611.1
2017-Jul-08 01:30N 55°47' E 015°52'611.1
2017-Jul-08 01:00N 55°43' E 015°44'611.2
2017-Jul-08 00:30N 55°40' E 015°36'611.2
2017-Jul-08 00:01N 55°38' E 015°27'611.2
2017-Jul-07 23:30N 55°36' E 015°18'611.5
2017-Jul-07 23:01N 55°33' E 015°09'611.4
2017-Jul-07 22:30N 55°30' E 014°60'611.5
2017-Jul-07 22:00N 55°27' E 014°51'711.6
2017-Jul-07 21:26N 55°24' E 014°41'511.5
2017-Jul-07 20:59N 55°20' E 014°35'511.5
2017-Jul-07 20:30N 55°16' E 014°29'611.4
2017-Jul-07 20:00N 55°12' E 014°22'611.4
2017-Jul-07 19:30N 55°07' E 014°16'611.5
2017-Jul-07 19:00N 55°03' E 014°09'611.2
2017-Jul-07 18:29N 55°00' E 014°00'2211.4
2017-Jul-07 16:31N 54°53' E 013°24'011.1
2017-Jul-07 16:29N 54°53' E 013°23'1611.0
2017-Jul-07 15:02N 54°48' E 012°57'011.0
2017-Jul-07 15:01N 54°48' E 012°56'1110.8
2017-Jul-07 14:00N 54°43' E 012°39'510.9
2017-Jul-07 13:30N 54°40' E 012°31'611.2
2017-Jul-07 13:00N 54°37' E 012°23'510.2
2017-Jul-07 12:30N 54°33' E 012°18'910.9
2017-Jul-07 11:40N 54°25' E 012°10'411.0
2017-Jul-07 11:17N 54°24' E 012°03'310.9
2017-Jul-07 11:01N 54°25' E 011°58'611.0
2017-Jul-07 10:25N 54°25' E 011°47'511.4
2017-Jul-07 10:00N 54°27' E 011°39'611.5
2017-Jul-07 09:29N 54°29' E 011°30'510.1
2017-Jul-07 09:01N 54°31' E 011°22'510.0
2017-Jul-07 08:30N 54°33' E 011°15'5 9.6
2017-Jul-07 08:00N 54°35' E 011°07'510.7
2017-Jul-07 07:30N 54°34' E 010°58'611.2
2017-Jul-07 07:00N 54°34' E 010°48'611.7
2017-Jul-07 06:30N 54°33' E 010°38'611.4
2017-Jul-07 06:00N 54°32' E 010°28'611.3
2017-Jul-07 05:31N 54°30' E 010°19'611.2
2017-Jul-07 05:01N 54°25' E 010°13'4 8.7
2017-Jul-07 04:30N 54°22' E 010°09'0 0.3
2017-Jul-07 04:00N 54°22' E 010°08'0 0.9
2017-Jul-07 03:30N 54°22' E 010°08'2 3.9
2017-Jul-07 03:00N 54°22' E 010°04'3 5.9
2017-Jul-07 02:26N 54°21' E 009°59'3 7.3
2017-Jul-07 02:00N 54°21' E 009°54'  

Dump ship's entire track history